Time;durP1;ratioP1;P1;durP2;ratioP2;P2;SDS_P1;SDS_P2;PMS_P1;PMS_P2;Temp;Humidity;BMP_temperature;BMP_pressure;BME280_temperature;BME280_humidity;BME280_pressure;Samples;Min_cycle;Max_cycle;Signal;HPM_P1;HPM_P2
2022/07/13 00:01:59;;;;;;;4.22;1.50;;;;;;;14.78;49.93;95271.47;5070354;28;20482;-76
2022/07/13 00:04:25;;;;;;;2.58;1.50;;;;;;;14.77;51.84;95277.69;5070287;28;20032;-76
2022/07/13 00:06:51;;;;;;;4.35;1.40;;;;;;;14.69;51.95;95262.69;5053728;28;20434;-75
2022/07/13 00:09:16;;;;;;;2.53;1.60;;;;;;;14.69;51.24;95267.09;5070203;28;20040;-76
2022/07/13 00:11:41;;;;;;;2.47;1.50;;;;;;;14.74;51.27;95273.56;5052873;28;20025;-76
2022/07/13 00:14:07;;;;;;;2.50;1.50;;;;;;;14.74;50.20;95265.72;5053659;28;20048;-76
2022/07/13 00:16:32;;;;;;;2.97;1.70;;;;;;;14.78;50.57;95266.25;5070134;28;20407;-76
2022/07/13 00:18:58;;;;;;;4.78;1.60;;;;;;;14.77;52.01;95276.88;5070233;28;20036;-76
2022/07/13 00:21:24;;;;;;;3.17;1.80;;;;;;;14.33;53.08;95271.25;5069985;28;20027;-76
2022/07/13 00:23:49;;;;;;;2.97;1.90;;;;;;;13.95;54.76;95276.31;5070148;28;20090;-76
2022/07/13 00:26:15;;;;;;;3.13;1.65;;;;;;;13.85;56.30;95271.13;5036680;28;20017;-76
2022/07/13 00:28:40;;;;;;;3.25;1.60;;;;;;;13.92;55.68;95273.16;5053314;28;20037;-76
2022/07/13 00:31:06;;;;;;;2.97;1.45;;;;;;;14.01;55.67;95267.97;5036599;28;20033;-76
2022/07/13 00:33:31;;;;;;;4.18;1.60;;;;;;;13.99;53.22;95258.63;5053483;28;20029;-76
2022/07/13 00:35:56;;;;;;;2.47;1.30;;;;;;;13.98;53.07;95260.38;5071086;28;20032;-76
2022/07/13 00:38:22;;;;;;;2.65;1.40;;;;;;;14.11;52.45;95267.97;5053252;28;20036;-76
2022/07/13 00:40:47;;;;;;;3.20;1.45;;;;;;;14.21;53.04;95276.63;5052993;28;20040;-76
2022/07/13 00:43:13;;;;;;;2.33;1.50;;;;;;;13.95;55.03;95276.31;5053058;28;20043;-75
2022/07/13 00:45:38;;;;;;;2.78;1.80;;;;;;;13.46;55.69;95243.31;5069785;28;20032;-76
2022/07/13 00:48:04;;;;;;;2.13;1.50;;;;;;;13.70;56.01;95271.63;5069482;28;20036;-76
2022/07/13 00:50:30;;;;;;;5.78;1.50;;;;;;;13.57;56.83;95284.94;5070027;28;20486;-76
2022/07/13 00:52:55;;;;;;;2.53;1.50;;;;;;;13.51;57.18;95282.84;5069649;28;20490;-75
2022/07/13 00:55:21;;;;;;;3.50;1.40;;;;;;;13.46;56.49;95279.84;5052853;28;20522;-76
2022/07/13 00:57:46;;;;;;;2.88;1.60;;;;;;;13.44;57.83;95282.56;5052691;28;20441;-75
2022/07/13 01:00:13;;;;;;;4.32;1.85;;;;;;;13.30;58.46;95282.94;5052981;28;20025;-76
2022/07/13 01:02:42;;;;;;;6.43;1.90;;;;;;;12.95;58.42;95274.53;5052794;28;20518;-76
2022/07/13 01:05:09;;;;;;;3.83;2.67;;;;;;;12.96;58.84;95276.19;5052790;28;20128;-76
2022/07/13 01:07:34;;;;;;;2.10;1.50;;;;;;;12.82;59.67;95279.13;5069400;28;20064;-76
2022/07/13 01:10:01;;;;;;;3.08;1.60;;;;;;;12.87;59.71;95279.59;5052775;28;20508;-76
2022/07/13 01:12:28;;;;;;;2.67;1.92;;;;;;;12.75;60.06;95275.38;5052697;28;20033;-75
2022/07/13 01:14:54;;;;;;;3.83;2.00;;;;;;;12.56;60.95;95272.66;5069432;28;20032;-75
2022/07/13 01:17:20;;;;;;;6.32;1.90;;;;;;;12.60;60.98;95267.06;5052718;28;20036;-76
2022/07/13 01:19:45;;;;;;;2.13;1.73;;;;;;;12.60;60.90;95279.28;5052655;28;20521;-75
2022/07/13 01:22:10;;;;;;;3.22;1.80;;;;;;;12.44;61.77;95277.94;5054576;28;20414;-76
2022/07/13 01:24:36;;;;;;;4.50;1.80;;;;;;;12.29;61.95;95267.03;5056688;28;20028;-75
2022/07/13 01:27:01;;;;;;;2.50;1.90;;;;;;;12.33;61.55;95283.22;5073257;28;20036;-75
2022/07/13 01:29:27;;;;;;;3.42;1.83;;;;;;;12.21;61.98;95271.22;5056442;28;20028;-76
2022/07/13 01:31:57;;;;;;;2.65;1.60;;;;;;;12.08;62.48;95272.19;5056619;28;20025;-76
2022/07/13 01:34:22;;;;;;;3.95;1.80;;;;;;;12.07;62.23;95278.38;5056721;28;20040;-75
2022/07/13 01:36:48;;;;;;;2.35;1.50;;;;;;;12.02;62.02;95267.50;5074404;28;20059;-75
2022/07/13 01:39:13;;;;;;;8.63;1.80;;;;;;;12.03;62.50;95270.91;5074733;28;20037;-75
2022/07/13 01:41:39;;;;;;;2.47;1.48;;;;;;;11.94;63.05;95274.28;5056461;28;20024;-75
2022/07/13 01:44:04;;;;;;;2.53;1.58;;;;;;;11.88;63.52;95277.38;5056395;28;20063;-75
2022/07/13 01:46:30;;;;;;;2.20;1.70;;;;;;;11.79;63.66;95268.50;5039622;28;20035;-75
2022/07/13 01:48:55;;;;;;;3.10;1.77;;;;;;;11.73;64.32;95268.97;5056440;28;20025;-75
2022/07/13 01:51:21;;;;;;;6.97;1.70;;;;;;;11.75;64.52;95265.31;5056185;28;20024;-75
2022/07/13 01:53:46;;;;;;;2.88;1.58;;;;;;;11.79;64.32;95264.13;5072937;28;20024;-75
2022/07/13 01:56:12;;;;;;;3.92;2.10;;;;;;;11.61;64.81;95257.78;5056196;28;20028;-75
2022/07/13 01:58:38;;;;;;;3.03;1.63;;;;;;;11.58;64.59;95256.25;5055924;28;20061;-75
2022/07/13 02:01:03;;;;;;;4.18;1.80;;;;;;;11.57;64.99;95265.00;5072716;28;20035;-76
2022/07/13 02:03:29;;;;;;;2.58;1.75;;;;;;;11.48;64.60;95265.75;5072694;28;20032;-75
2022/07/13 02:05:55;;;;;;;2.80;1.77;;;;;;;11.47;64.54;95271.88;5073898;28;20052;-75
2022/07/13 02:08:21;;;;;;;3.10;1.90;;;;;;;11.37;65.22;95278.78;5056085;28;20123;-75
2022/07/13 02:10:46;;;;;;;4.90;2.05;;;;;;;11.41;64.50;95269.78;5055873;28;20039;-75
2022/07/13 02:13:12;;;;;;;3.58;2.00;;;;;;;11.39;65.33;95276.84;5072444;28;20059;-75
2022/07/13 02:15:37;;;;;;;2.28;1.60;;;;;;;11.42;65.55;95276.63;5039113;28;20033;-75
2022/07/13 02:18:03;;;;;;;3.40;1.70;;;;;;;11.41;65.54;95274.97;5055774;28;20383;-76
2022/07/13 02:20:29;;;;;;;4.45;1.70;;;;;;;11.41;65.46;95268.00;5072320;28;20028;-75
2022/07/13 02:22:54;;;;;;;2.22;1.80;;;;;;;11.43;63.84;95265.28;5055505;28;20445;-75
2022/07/13 02:25:20;;;;;;;3.20;1.80;;;;;;;11.46;64.03;95266.81;5072249;28;20028;-76
2022/07/13 02:27:46;;;;;;;3.70;1.80;;;;;;;11.55;63.20;95260.88;5055536;28;20044;-75
2022/07/13 02:30:12;;;;;;;2.58;1.67;;;;;;;11.59;62.51;95268.31;5055509;28;20464;-75
2022/07/13 02:32:38;;;;;;;2.58;1.58;;;;;;;11.69;61.82;95267.59;5055061;28;20548;-75
2022/07/13 02:35:04;;;;;;;2.70;1.77;;;;;;;11.79;61.19;95273.72;5071587;28;20028;-75
2022/07/13 02:37:29;;;;;;;2.92;1.83;;;;;;;11.84;62.09;95271.56;5071931;28;20032;-75
2022/07/13 02:39:56;;;;;;;3.95;1.80;;;;;;;11.80;62.32;95262.34;5055380;28;20406;-75
2022/07/13 02:42:24;;;;;;;2.88;1.77;;;;;;;11.87;60.49;95260.94;5038966;28;20132;-75
2022/07/13 02:44:51;;;;;;;2.97;1.70;;;;;;;12.00;60.34;95269.38;5055330;28;20028;-76
2022/07/13 02:47:16;;;;;;;2.92;2.10;;;;;;;11.99;61.00;95266.94;5055310;28;20418;-75
2022/07/13 02:49:41;;;;;;;2.25;1.80;;;;;;;11.96;59.95;95270.59;5055058;28;20090;-75
2022/07/13 02:52:07;;;;;;;2.22;1.60;;;;;;;12.09;58.81;95262.63;5071760;28;20025;-75
2022/07/13 02:54:32;;;;;;;3.40;1.70;;;;;;;12.20;58.62;95262.56;5071725;28;20033;-75
2022/07/13 02:56:58;;;;;;;2.72;1.60;;;;;;;12.27;57.75;95255.91;5054997;28;20036;-75
2022/07/13 02:59:23;;;;;;;2.72;1.60;;;;;;;12.22;58.01;95254.63;5054829;28;20056;-75
2022/07/13 03:01:49;;;;;;;3.58;2.58;;;;;;;12.29;58.32;95246.19;5054993;28;20021;-76
2022/07/13 03:04:15;;;;;;;2.35;1.50;;;;;;;12.47;57.67;95262.06;5071824;28;20037;-76
2022/07/13 03:06:40;;;;;;;3.33;1.70;;;;;;;12.51;57.51;95258.25;5054882;28;20474;-75
2022/07/13 03:09:06;;;;;;;3.45;1.73;;;;;;;12.40;57.69;95258.31;5054791;28;20045;-76
2022/07/13 03:11:31;;;;;;;2.53;1.50;;;;;;;12.31;58.55;95259.06;5054804;28;20457;-76
2022/07/13 03:13:57;;;;;;;3.47;1.80;;;;;;;12.44;59.07;95274.50;5072524;28;20036;-76
2022/07/13 03:16:22;;;;;;;2.92;1.80;;;;;;;12.45;59.72;95274.41;5054617;28;20029;-76
2022/07/13 03:18:48;;;;;;;4.90;2.40;;;;;;;12.29;59.75;95269.63;5071415;28;20044;-76
2022/07/13 03:21:13;;;;;;;2.88;2.35;;;;;;;12.28;60.17;95256.72;5072472;28;20024;-76
2022/07/13 03:23:38;;;;;;;3.22;2.08;;;;;;;12.43;60.62;95267.66;5071143;28;20411;-75
2022/07/13 03:42:13;;;;;;;3.80;2.35;;;;;;;12.75;61.40;95263.16;5108458;27;20362;-73
2022/07/13 03:44:38;;;;;;;7.43;3.05;;;;;;;12.61;61.48;95273.13;5107255;28;20032;-72
2022/07/13 03:47:04;;;;;;;4.47;2.63;;;;;;;12.37;61.75;95273.34;5108761;28;20039;-72
2022/07/13 03:49:29;;;;;;;4.72;3.20;;;;;;;12.48;62.06;95274.16;5108628;28;20027;-72
2022/07/13 03:51:55;;;;;;;5.18;2.85;;;;;;;12.51;62.50;95267.84;5090079;28;20512;-72
2022/07/13 03:54:21;;;;;;;5.78;2.70;;;;;;;12.51;63.01;95271.28;5107101;28;20073;-72
2022/07/13 03:56:47;;;;;;;3.70;2.80;;;;;;;12.58;63.21;95268.16;5107056;28;20032;-72
2022/07/13 03:59:12;;;;;;;4.65;2.78;;;;;;;12.66;63.18;95269.16;5106963;28;20030;-73
2022/07/13 04:01:38;;;;;;;3.40;2.70;;;;;;;12.59;63.48;95269.78;5106944;28;20028;-72
2022/07/13 04:04:03;;;;;;;8.85;3.08;;;;;;;12.61;63.17;95283.53;5108212;28;20028;-72
2022/07/13 04:06:29;;;;;;;6.43;3.22;;;;;;;12.63;63.45;95273.81;5108541;28;20057;-72
2022/07/13 04:08:54;;;;;;;9.73;3.95;;;;;;;12.62;63.28;95278.22;5108139;28;20042;-72
2022/07/13 04:11:20;;;;;;;4.53;3.30;;;;;;;12.81;62.52;95277.47;5106909;28;20032;-72
2022/07/13 04:13:45;;;;;;;8.88;3.08;;;;;;;13.81;59.44;95282.78;5108519;28;20040;-72
2022/07/13 04:16:11;;;;;;;6.40;3.10;;;;;;;14.92;56.29;95276.25;5108266;28;20031;-72
2022/07/13 04:18:36;;;;;;;3.10;2.47;;;;;;;15.78;52.88;95269.97;5089659;28;20233;-72
2022/07/13 04:21:02;;;;;;;6.13;2.35;;;;;;;16.74;49.87;95285.88;5089766;28;20404;-72
2022/07/13 04:23:28;;;;;;;3.35;2.20;;;;;;;17.63;47.16;95282.94;5107790;28;20050;-72
2022/07/13 04:25:54;;;;;;;5.25;2.45;;;;;;;18.41;45.41;95283.59;5106431;28;20028;-73
2022/07/13 04:28:20;;;;;;;6.43;2.75;;;;;;;19.11;43.71;95283.06;5106461;28;20035;-72
2022/07/13 04:30:45;;;;;;;6.20;2.45;;;;;;;19.71;41.47;95276.50;5106438;28;20114;-72
2022/07/13 04:33:11;;;;;;;9.68;3.10;;;;;;;20.22;40.60;95282.13;5089442;28;20049;-73
2022/07/13 04:35:36;;;;;;;5.88;2.90;;;;;;;20.68;40.06;95279.50;5107848;28;20039;-73
2022/07/13 04:38:02;;;;;;;7.45;2.83;;;;;;;21.22;39.11;95289.06;5106374;28;20425;-72
2022/07/13 04:40:27;;;;;;;6.05;2.55;;;;;;;21.73;37.25;95279.44;5106006;28;20051;-73
2022/07/13 04:42:53;;;;;;;4.65;3.10;;;;;;;22.31;36.39;95276.81;5077087;28;20473;-73
2022/07/13 04:45:19;;;;;;;6.45;3.13;;;;;;;22.71;35.70;95280.66;5093976;28;20043;-73
2022/07/13 04:47:45;;;;;;;4.75;2.88;;;;;;;22.97;34.79;95284.56;5092561;28;20024;-73
2022/07/13 04:50:11;;;;;;;5.53;2.80;;;;;;;23.15;34.52;95281.41;5075538;28;20034;-72
2022/07/13 04:52:36;;;;;;;7.72;2.80;;;;;;;23.06;34.66;95274.66;5075580;28;20052;-74
2022/07/13 04:55:02;;;;;;;6.10;2.45;;;;;;;22.41;36.56;95284.47;5075453;28;20051;-72
2022/07/13 04:57:27;;;;;;;10.38;2.88;;;;;;;20.63;39.88;95282.66;5092442;28;20055;-72
2022/07/13 04:59:53;;;;;;;5.97;3.03;;;;;;;20.60;39.99;95290.94;5092284;28;20451;-73
2022/07/13 05:02:19;;;;;;;5.70;2.90;;;;;;;20.50;40.60;95288.53;5075916;28;20027;-72
2022/07/13 05:04:44;;;;;;;7.50;3.17;;;;;;;20.20;41.10;95281.50;5075356;28;20039;-72
2022/07/13 05:07:10;;;;;;;8.05;3.05;;;;;;;20.04;41.51;95288.50;5075364;28;20020;-72
2022/07/13 05:09:35;;;;;;;4.97;2.90;;;;;;;19.41;42.96;95284.16;5093356;28;20028;-72
2022/07/13 05:12:00;;;;;;;5.82;3.17;;;;;;;19.59;42.75;95284.75;5092170;28;20027;-72
2022/07/13 05:14:26;;;;;;;7.05;3.10;;;;;;;19.51;43.12;95283.97;5092103;28;20093;-72
2022/07/13 05:16:51;;;;;;;7.88;2.85;;;;;;;19.33;43.44;95273.63;5091958;28;20028;-72
2022/07/13 05:19:17;;;;;;;4.95;2.72;;;;;;;19.37;44.24;95274.94;5091823;28;20028;-72
2022/07/13 05:21:42;;;;;;;5.20;3.25;;;;;;;19.51;43.93;95283.97;5091786;28;20043;-72
2022/07/13 05:24:08;;;;;;;10.02;3.40;;;;;;;19.52;44.36;95283.78;5091831;28;20475;-72
2022/07/13 05:26:33;;;;;;;7.78;3.40;;;;;;;19.18;44.74;95278.78;5093428;28;20039;-73
2022/07/13 05:28:59;;;;;;;7.28;3.67;;;;;;;19.39;44.76;95288.78;5091839;28;20452;-72
2022/07/13 05:31:24;;;;;;;14.90;3.63;;;;;;;19.51;44.45;95289.22;5092834;28;20036;-72
2022/07/13 05:33:50;;;;;;;9.23;3.55;;;;;;;19.46;43.62;95296.81;5092923;28;20024;-72
2022/07/13 05:36:15;;;;;;;13.48;4.22;;;;;;;19.42;44.48;95296.34;5074992;28;20036;-73
2022/07/13 05:38:41;;;;;;;10.07;3.42;;;;;;;19.54;44.36;95297.59;5091683;28;20485;-72
2022/07/13 05:41:06;;;;;;;6.70;3.50;;;;;;;19.62;43.19;95296.75;5091430;28;20075;-72
2022/07/13 05:43:32;;;;;;;8.00;3.42;;;;;;;19.70;43.32;95296.75;5091469;28;20069;-73
2022/07/13 05:45:58;;;;;;;8.65;3.08;;;;;;;19.75;42.65;95293.59;5074618;28;20097;-73
2022/07/13 05:48:23;;;;;;;10.60;3.08;;;;;;;19.90;42.49;95302.41;5074613;28;20032;-72
2022/07/13 05:50:51;;;;;;;9.05;2.92;;;;;;;19.82;41.01;95299.81;5091400;28;20040;-72
2022/07/13 05:53:18;;;;;;;5.85;2.95;;;;;;;19.66;41.44;95292.81;5090596;28;20024;-73
2022/07/13 05:55:43;;;;;;;7.53;2.83;;;;;;;19.50;41.28;95285.78;5074664;28;20059;-72
2022/07/13 05:58:09;;;;;;;5.78;3.17;;;;;;;19.70;42.28;95295.94;5092411;28;20039;-72
2022/07/13 06:00:34;;;;;;;5.05;2.70;;;;;;;19.75;41.88;95290.94;5092566;28;20039;-73
2022/07/13 06:02:59;;;;;;;6.53;2.88;;;;;;;19.81;43.62;95292.94;5092360;28;20024;-72
2022/07/13 06:05:25;;;;;;;7.38;3.28;;;;;;;19.69;41.57;95286.38;5091151;28;20043;-72
2022/07/13 06:07:50;;;;;;;5.65;2.85;;;;;;;19.55;42.76;95277.34;5092240;28;20020;-72
2022/07/13 06:10:16;;;;;;;5.13;2.95;;;;;;;19.58;42.19;95282.25;5092259;28;20062;-72
2022/07/13 06:12:41;;;;;;;6.50;3.10;;;;;;;19.59;42.94;95268.13;5074025;28;20032;-72
2022/07/13 06:15:07;;;;;;;6.25;3.00;;;;;;;19.79;43.72;95279.09;5092228;28;20417;-72
2022/07/13 06:17:32;;;;;;;7.80;3.25;;;;;;;19.86;42.65;95269.47;5090788;28;20096;-72
2022/07/13 06:19:58;;;;;;;8.05;3.05;;;;;;;19.96;43.00;95270.09;5090795;28;20546;-72
2022/07/13 06:22:23;;;;;;;8.90;2.67;;;;;;;19.95;42.44;95270.28;5090661;28;20016;-72
2022/07/13 06:24:49;;;;;;;7.78;2.28;;;;;;;20.20;41.35;95269.13;5073719;28;20047;-72
2022/07/13 06:27:14;;;;;;;4.93;1.98;;;;;;;20.34;41.24;95257.00;5091894;28;20024;-73
2022/07/13 06:29:40;;;;;;;4.68;2.08;;;;;;;20.52;40.31;95265.41;5073573;28;20386;-72
2022/07/13 06:32:05;;;;;;;11.25;1.77;;;;;;;20.77;38.93;95267.06;5091825;28;20478;-72
2022/07/13 06:34:31;;;;;;;3.67;1.60;;;;;;;20.86;38.32;95269.44;5090535;28;20378;-73
2022/07/13 06:36:56;;;;;;;5.10;1.67;;;;;;;21.05;38.78;95276.03;5090462;28;20031;-73
2022/07/13 06:39:21;;;;;;;6.60;1.35;;;;;;;21.15;37.69;95259.91;5091632;28;20035;-72
2022/07/13 06:41:47;;;;;;;5.40;1.20;;;;;;;21.28;38.35;95256.63;5073431;28;20048;-73
2022/07/13 06:44:12;;;;;;;6.30;1.33;;;;;;;21.42;37.83;95261.13;5073479;28;20027;-72
2022/07/13 06:46:38;;;;;;;2.90;1.27;;;;;;;21.65;37.03;95266.31;5073371;28;20028;-73
2022/07/13 06:49:03;;;;;;;2.25;1.30;;;;;;;21.78;36.19;95266.44;5091514;28;20035;-73
2022/07/13 06:51:29;;;;;;;3.58;1.20;;;;;;;21.82;35.12;95241.28;5090169;28;20040;-72
2022/07/13 06:53:54;;;;;;;5.72;1.30;;;;;;;21.84;34.84;95255.16;5073341;28;20028;-74
2022/07/13 06:56:20;;;;;;;3.70;1.20;;;;;;;21.96;35.22;95257.31;5073368;28;20032;-73
2022/07/13 06:58:46;;;;;;;4.03;1.10;;;;;;;22.02;34.97;95252.09;5073197;28;20174;-72
2022/07/13 07:01:12;;;;;;;4.15;1.30;;;;;;;22.16;35.67;95254.88;5090181;28;20039;-73
2022/07/13 07:03:37;;;;;;;4.20;1.42;;;;;;;22.24;35.67;95239.72;5090324;28;20023;-72
2022/07/13 07:06:04;;;;;;;4.43;1.20;;;;;;;22.46;34.41;95245.03;5089867;28;20028;-73
2022/07/13 07:08:29;;;;;;;4.63;1.67;;;;;;;22.60;33.69;95246.78;5056688;28;20035;-73
2022/07/13 07:10:54;;;;;;;2.90;1.30;;;;;;;22.66;34.12;95248.66;5090022;28;20036;-73
2022/07/13 07:13:20;;;;;;;3.40;1.30;;;;;;;22.75;33.96;95247.50;5091139;28;20214;-72
2022/07/13 07:15:45;;;;;;;5.07;1.10;;;;;;;22.82;33.42;95250.22;5091277;28;20457;-73
2022/07/13 07:18:12;;;;;;;3.83;1.30;;;;;;;22.87;33.66;95246.97;5089908;28;20024;-73
2022/07/13 07:20:37;;;;;;;6.38;1.20;;;;;;;22.92;33.68;95250.66;5056567;28;20046;-73
2022/07/13 07:23:03;;;;;;;4.55;1.20;;;;;;;22.94;33.00;95251.31;5089841;28;20106;-73
2022/07/13 07:25:29;;;;;;;4.13;1.30;;;;;;;23.04;33.01;95256.31;5056278;28;20047;-72
2022/07/13 07:27:54;;;;;;;2.00;1.02;;;;;;;23.03;32.46;95254.66;5089793;28;20501;-73
2022/07/13 07:30:20;;;;;;;5.00;1.30;;;;;;;23.11;32.65;95257.16;5056136;28;20036;-73
2022/07/13 07:32:45;;;;;;;2.78;1.30;;;;;;;23.17;32.96;95253.72;5089720;28;20028;-72
2022/07/13 07:35:11;;;;;;;3.15;1.15;;;;;;;23.27;32.34;95249.94;5089782;28;20039;-73
2022/07/13 07:37:38;;;;;;;4.95;1.33;;;;;;;23.41;31.84;95256.94;5090909;28;20024;-72
2022/07/13 07:40:05;;;;;;;6.35;1.75;;;;;;;23.45;31.98;95255.50;5089511;28;20032;-73
2022/07/13 07:42:31;;;;;;;4.25;1.00;;;;;;;23.55;31.18;95253.31;5089581;28;20024;-73
2022/07/13 07:44:56;;;;;;;2.63;1.23;;;;;;;23.68;30.47;95257.88;5072839;28;20301;-73
2022/07/13 07:47:25;;;;;;;5.57;1.20;;;;;;;23.68;30.77;95259.69;5089850;28;20028;-73
2022/07/13 07:49:53;;;;;;;2.85;0.88;;;;;;;23.74;29.94;95257.13;5090688;28;20036;-72
2022/07/13 07:52:19;;;;;;;3.97;1.17;;;;;;;23.61;30.79;95252.53;5056353;28;20032;-73
2022/07/13 07:54:46;;;;;;;3.30;1.20;;;;;;;23.63;32.26;95253.16;5090737;28;20040;-73
2022/07/13 07:57:11;;;;;;;3.85;1.15;;;;;;;23.70;30.48;95249.72;5089396;28;20024;-73
2022/07/13 07:59:37;;;;;;;3.97;1.00;;;;;;;23.76;32.33;95259.56;5055751;28;20475;-73
2022/07/13 08:02:02;;;;;;;6.63;1.13;;;;;;;23.89;30.25;95264.91;5089492;28;20024;-73
2022/07/13 08:04:27;;;;;;;1.65;0.93;;;;;;;23.86;30.02;95254.72;5089423;28;20036;-73
2022/07/13 08:06:53;;;;;;;3.88;1.00;;;;;;;23.82;30.10;95258.75;5089560;28;20073;-73
2022/07/13 08:09:18;;;;;;;3.25;0.90;;;;;;;23.88;29.66;95250.03;5072414;28;20694;-73
2022/07/13 08:11:44;;;;;;;2.63;1.10;;;;;;;23.88;30.17;95257.19;5089313;28;20479;-73
2022/07/13 08:14:09;;;;;;;3.17;1.02;;;;;;;23.92;30.68;95253.91;5089390;28;20024;-73
2022/07/13 08:16:35;;;;;;;7.32;1.45;;;;;;;23.97;30.35;95248.81;5090902;28;20028;-73
2022/07/13 08:19:00;;;;;;;9.48;1.65;;;;;;;24.03;30.37;95249.88;5059463;28;20493;-73
2022/07/13 08:21:26;;;;;;;3.15;1.38;;;;;;;24.06;30.71;95247.63;5059629;28;20028;-73
2022/07/13 08:23:51;;;;;;;5.45;1.05;;;;;;;24.19;30.61;95251.34;5093008;28;20028;-73
2022/07/13 08:26:24;;;;;;;3.38;1.02;;;;;;;24.26;29.90;95254.81;5076284;28;20032;-73
2022/07/13 08:28:50;;;;;;;4.90;1.10;;;;;;;24.31;30.07;95250.53;5092912;28;20119;-73
2022/07/13 08:31:16;;;;;;;5.20;1.30;;;;;;;24.33;30.03;95258.31;5092810;28;20332;-73
2022/07/13 08:39:12;;;;;;;5.68;1.15;;;;;;;24.47;29.24;95256.53;5093014;28;20059;-73
2022/07/13 08:41:39;;;;;;;5.68;1.27;;;;;;;24.44;29.49;95254.28;5092761;28;20132;-73
2022/07/13 08:44:04;;;;;;;2.50;1.20;;;;;;;24.46;29.79;95239.78;5075758;28;20032;-73
2022/07/13 08:46:30;;;;;;;4.50;1.33;;;;;;;24.46;30.15;95255.72;5075899;28;20038;-73
2022/07/13 08:48:56;;;;;;;2.95;1.10;;;;;;;24.26;29.29;95239.69;5075980;28;20024;-73
2022/07/13 08:51:22;;;;;;;3.58;1.17;;;;;;;24.29;29.67;95246.44;5075746;28;20420;-73
2022/07/13 08:53:49;;;;;;;3.10;1.08;;;;;;;24.30;29.80;95248.09;5092421;28;20497;-73
2022/07/13 08:56:14;;;;;;;4.53;1.27;;;;;;;24.21;28.74;95241.31;5059004;28;20036;-73
2022/07/13 08:58:40;;;;;;;3.47;1.00;;;;;;;24.09;30.31;95254.38;5092363;28;20461;-73
2022/07/13 09:01:10;;;;;;;1.92;0.90;;;;;;;24.16;30.98;95255.22;5092395;28;20044;-73
2022/07/13 09:03:35;;;;;;;4.65;1.10;;;;;;;24.27;31.10;95259.13;5092294;28;20074;-73
2022/07/13 09:06:01;;;;;;;3.65;1.17;;;;;;;24.36;30.12;95244.63;5075614;28;20500;-73
2022/07/13 09:08:27;;;;;;;2.55;1.20;;;;;;;24.43;29.75;95250.81;5058659;28;20032;-73
2022/07/13 09:11:00;;;;;;;2.70;1.08;;;;;;;24.39;30.24;95238.91;5075296;28;20505;-73
2022/07/13 09:13:38;;;;;;;2.30;1.05;;;;;;;24.35;29.17;95248.31;5093302;28;20027;-73
2022/07/13 09:16:24;;;;;;;3.38;1.38;;;;;;;24.35;30.34;95248.31;5092268;28;20050;-73
2022/07/13 09:18:52;;;;;;;2.45;1.10;;;;;;;24.52;29.98;95249.59;5075388;28;20135;-73
2022/07/13 09:21:21;;;;;;;3.40;1.23;;;;;;;24.59;29.78;95243.47;5092061;28;20036;-73
2022/07/13 09:24:01;;;;;;;3.05;0.98;;;;;;;24.53;30.00;95240.59;5092108;28;20043;-73
2022/07/13 09:26:44;;;;;;;2.45;1.00;;;;;;;24.41;28.69;95234.22;5092047;28;20055;-73
2022/07/13 09:29:11;;;;;;;6.35;3.38;;;;;;;24.16;29.38;95230.53;5075077;28;20110;-73
2022/07/13 09:32:11;;;;;;;4.47;1.85;;;;;;;24.34;29.76;95232.56;5091840;28;20127;-73
2022/07/13 09:34:47;;;;;;;2.70;0.95;;;;;;;24.47;29.48;95233.44;5069752;28;20051;-73
2022/07/13 09:37:14;;;;;;;2.90;1.58;;;;;;;24.50;30.33;95229.56;5091696;28;20036;-73
2022/07/13 09:39:55;;;;;;;4.18;1.58;;;;;;;24.52;29.00;95225.69;5091452;28;20040;-73
2022/07/13 09:42:28;;;;;;;4.65;1.50;;;;;;;24.51;29.16;95237.31;5091440;28;20040;-73
2022/07/13 09:47:54;;;;;;;3.40;1.30;;;;;;;24.40;30.97;95237.88;5091613;28;20089;-73
2022/07/13 09:50:20;;;;;;;8.32;6.30;;;;;;;24.42;28.27;95225.22;5091408;28;20032;-73
2022/07/13 09:52:47;;;;;;;2.92;2.35;;;;;;;24.42;30.00;95232.38;5074487;28;20036;-73
2022/07/13 09:55:13;;;;;;;2.83;1.40;;;;;;;24.49;30.12;95228.75;5074581;28;20063;-73
2022/07/13 09:57:46;;;;;;;3.40;2.40;;;;;;;24.57;30.50;95234.88;5092449;28;20031;-73
2022/07/13 10:00:13;;;;;;;3.03;1.30;;;;;;;24.60;29.81;95224.69;5074996;28;20114;-73
2022/07/13 10:02:42;;;;;;;1.98;1.13;;;;;;;24.66;30.12;95233.66;5074781;28;20424;-73
2022/07/13 10:05:08;;;;;;;3.53;1.00;;;;;;;24.75;29.83;95235.09;5074760;28;20115;-73
2022/07/13 10:07:34;;;;;;;5.95;1.30;;;;;;;24.87;29.88;95225.47;5074528;28;20042;-73
2022/07/13 10:09:59;;;;;;;2.38;0.98;;;;;;;24.92;29.06;95214.22;5074198;28;20537;-73
2022/07/13 10:12:25;;;;;;;2.42;1.15;;;;;;;24.95;28.80;95221.78;5091003;28;20032;-73
2022/07/13 10:14:51;;;;;;;3.10;1.00;;;;;;;25.02;28.95;95222.59;5090841;28;20040;-73
2022/07/13 10:17:16;;;;;;;3.10;1.00;;;;;;;25.11;29.03;95215.22;5074065;28;20040;-73
2022/07/13 10:19:56;;;;;;;3.17;1.30;;;;;;;25.17;29.84;95209.91;5090736;28;20032;-73
2022/07/13 10:22:23;;;;;;;5.38;1.75;;;;;;;25.37;28.85;95214.38;5090910;28;20036;-73
2022/07/13 10:24:57;;;;;;;6.10;1.50;;;;;;;25.45;29.60;95211.47;5073933;28;20032;-73
2022/07/13 10:27:30;;;;;;;3.15;1.50;;;;;;;25.42;28.77;95212.72;5090695;28;20020;-73
2022/07/13 10:30:02;;;;;;;1.95;1.00;;;;;;;25.48;28.23;95191.63;5074155;28;20492;-73
2022/07/13 10:32:29;;;;;;;2.47;0.90;;;;;;;25.47;27.19;95203.31;5090656;28;20031;-73
2022/07/13 10:34:59;;;;;;;4.45;1.10;;;;;;;25.31;27.09;95191.28;5090457;28;20103;-73
2022/07/13 10:37:26;;;;;;;3.38;0.90;;;;;;;25.34;28.10;95196.97;5090538;28;20031;-73
2022/07/13 10:40:12;;;;;;;3.00;0.90;;;;;;;25.27;29.31;95192.72;5073145;28;20110;-73
2022/07/13 10:43:04;;;;;;;2.90;1.20;;;;;;;25.07;29.25;95182.09;5074111;28;20020;-73
2022/07/13 10:45:43;;;;;;;3.38;1.38;;;;;;;24.80;30.04;95190.13;5091760;28;20112;-73
2022/07/13 10:48:21;;;;;;;2.65;1.10;;;;;;;24.72;30.16;95190.34;5057558;28;20115;-73
2022/07/13 10:50:48;;;;;;;2.33;1.00;;;;;;;24.67;30.18;95198.09;5090131;28;20079;-73
2022/07/13 10:53:16;;;;;;;3.67;1.10;;;;;;;24.60;29.83;95192.81;5056774;28;20036;-74
2022/07/13 10:55:48;;;;;;;3.13;1.20;;;;;;;24.59;29.11;95193.81;5090190;28;20416;-73
2022/07/13 10:58:32;;;;;;;3.33;1.00;;;;;;;24.71;29.02;95180.72;5091422;28;20424;-73
2022/07/13 11:01:20;;;;;;;4.03;0.82;;;;;;;24.81;29.14;95186.44;5091601;28;20060;-73
2022/07/13 11:03:47;;;;;;;3.95;0.90;;;;;;;24.89;27.91;95185.41;5089712;28;20036;-73
2022/07/13 11:06:17;;;;;;;3.05;0.90;;;;;;;24.93;28.21;95168.88;5091753;28;20066;-73
2022/07/13 11:08:43;;;;;;;1.10;0.70;;;;;;;25.03;27.87;95172.94;5073781;28;20111;-73
2022/07/13 11:11:16;;;;;;;3.33;0.90;;;;;;;25.12;27.49;95177.78;5089976;28;20115;-73
2022/07/13 11:13:44;;;;;;;1.42;0.80;;;;;;;25.13;27.53;95170.63;5056370;28;20024;-73
2022/07/13 11:16:10;;;;;;;1.70;0.98;;;;;;;25.19;28.65;95169.84;5073594;28;20039;-73
2022/07/13 11:18:36;;;;;;;3.33;1.00;;;;;;;25.21;28.45;95174.94;5089893;28;20020;-73
2022/07/13 11:21:08;;;;;;;2.65;0.90;;;;;;;25.10;28.26;95160.41;5090004;28;20050;-73
2022/07/13 11:26:46;;;;;;;3.53;0.80;;;;;;;25.23;28.08;95165.72;5089933;28;20094;-73
2022/07/13 11:29:22;;;;;;;2.38;0.93;;;;;;;25.19;27.35;95175.97;5089690;28;20120;-73
2022/07/13 11:31:57;;;;;;;3.65;0.80;;;;;;;25.02;28.12;95158.84;5089673;28;20031;-73
2022/07/13 11:34:24;;;;;;;1.77;0.82;;;;;;;25.05;28.64;95171.69;5072761;28;20028;-73
2022/07/13 11:36:49;;;;;;;1.98;0.93;;;;;;;25.00;28.43;95165.38;5072906;28;20502;-73
2022/07/13 11:39:24;;;;;;;2.35;1.13;;;;;;;25.07;28.70;95179.44;5089667;28;20059;-73
2022/07/13 11:41:51;;;;;;;1.95;0.98;;;;;;;25.05;27.03;95169.03;5072839;28;20060;-73
2022/07/13 11:44:23;;;;;;;1.80;0.90;;;;;;;25.03;28.01;95159.63;5090681;28;20479;-73
2022/07/13 11:46:48;;;;;;;2.45;0.90;;;;;;;25.06;29.48;95153.91;5073216;28;20126;-73
2022/07/13 11:49:14;;;;;;;2.35;0.98;;;;;;;25.18;28.89;95162.88;5072641;28;20561;-73
2022/07/13 11:51:41;;;;;;;1.95;1.10;;;;;;;25.15;28.50;95160.66;5073356;28;20063;-73
2022/07/13 11:54:17;;;;;;;6.07;1.70;;;;;;;25.13;29.51;95152.03;5060027;28;20106;-73
2022/07/13 11:56:51;;;;;;;2.20;1.00;;;;;;;25.03;29.02;95147.16;5077168;28;20036;-73
2022/07/13 11:59:39;;;;;;;3.75;1.30;;;;;;;25.01;29.05;95162.50;5093723;28;20056;-73
2022/07/13 12:02:08;;;;;;;4.32;1.90;;;;;;;25.01;28.64;95161.69;5094720;28;20028;-73